sensor_id;sensor_type;location;lat;lon;timestamp;P1;durP1;ratioP1;P2;durP2;ratioP2
6145;SDS011;3104;50.348;7.620;2023-11-19T00:01:27;1999.90;;;999.90;;
6145;SDS011;3104;50.348;7.620;2023-11-19T00:03:53;1999.90;;;999.90;;
6145;SDS011;3104;50.348;7.620;2023-11-19T00:06:18;1742.67;;;979.77;;
6145;SDS011;3104;50.348;7.620;2023-11-19T00:08:44;769.90;;;507.33;;
6145;SDS011;3104;50.348;7.620;2023-11-19T00:11:10;1999.90;;;999.90;;
6145;SDS011;3104;50.348;7.620;2023-11-19T00:13:36;1249.70;;;731.40;;
6145;SDS011;3104;50.348;7.620;2023-11-19T00:16:02;1999.90;;;999.90;;
6145;SDS011;3104;50.348;7.620;2023-11-19T00:18:29;1999.90;;;999.90;;
6145;SDS011;3104;50.348;7.620;2023-11-19T00:20:55;1228.60;;;713.20;;
6145;SDS011;3104;50.348;7.620;2023-11-19T00:23:20;1999.90;;;999.90;;
6145;SDS011;3104;50.348;7.620;2023-11-19T00:25:46;1999.90;;;999.90;;
6145;SDS011;3104;50.348;7.620;2023-11-19T00:28:12;1084.17;;;592.17;;
6145;SDS011;3104;50.348;7.620;2023-11-19T00:30:38;1258.40;;;776.03;;
6145;SDS011;3104;50.348;7.620;2023-11-19T00:33:05;1999.90;;;999.90;;
6145;SDS011;3104;50.348;7.620;2023-11-19T00:35:31;1999.90;;;999.90;;
6145;SDS011;3104;50.348;7.620;2023-11-19T00:37:57;1999.90;;;999.90;;
6145;SDS011;3104;50.348;7.620;2023-11-19T00:40:23;1999.90;;;999.90;;
6145;SDS011;3104;50.348;7.620;2023-11-19T00:42:49;1999.90;;;999.90;;
6145;SDS011;3104;50.348;7.620;2023-11-19T00:45:15;1999.90;;;999.90;;
6145;SDS011;3104;50.348;7.620;2023-11-19T00:47:41;1999.90;;;999.90;;
6145;SDS011;3104;50.348;7.620;2023-11-19T00:50:07;1999.90;;;999.90;;
6145;SDS011;3104;50.348;7.620;2023-11-19T00:52:34;1999.90;;;999.90;;
6145;SDS011;3104;50.348;7.620;2023-11-19T00:55:01;1999.90;;;999.90;;
6145;SDS011;3104;50.348;7.620;2023-11-19T00:57:26;1999.90;;;999.90;;
6145;SDS011;3104;50.348;7.620;2023-11-19T00:59:52;1999.90;;;999.90;;
6145;SDS011;3104;50.348;7.620;2023-11-19T01:02:17;1999.90;;;999.90;;
6145;SDS011;3104;50.348;7.620;2023-11-19T01:04:43;1999.90;;;999.90;;
6145;SDS011;3104;50.348;7.620;2023-11-19T01:07:09;1999.90;;;999.90;;
6145;SDS011;3104;50.348;7.620;2023-11-19T01:09:37;1999.90;;;999.90;;
6145;SDS011;3104;50.348;7.620;2023-11-19T01:12:03;1999.90;;;999.90;;
6145;SDS011;3104;50.348;7.620;2023-11-19T01:14:30;1999.90;;;999.90;;
6145;SDS011;3104;50.348;7.620;2023-11-19T01:16:55;1999.90;;;999.90;;
6145;SDS011;3104;50.348;7.620;2023-11-19T01:19:21;1999.90;;;999.90;;
6145;SDS011;3104;50.348;7.620;2023-11-19T01:21:48;1999.90;;;999.90;;
6145;SDS011;3104;50.348;7.620;2023-11-19T01:24:14;1999.90;;;999.90;;
6145;SDS011;3104;50.348;7.620;2023-11-19T01:26:40;1999.90;;;999.90;;
6145;SDS011;3104;50.348;7.620;2023-11-19T01:29:12;1999.90;;;999.90;;
6145;SDS011;3104;50.348;7.620;2023-11-19T01:31:45;1999.90;;;999.90;;
6145;SDS011;3104;50.348;7.620;2023-11-19T01:34:12;1999.90;;;999.90;;
6145;SDS011;3104;50.348;7.620;2023-11-19T01:36:37;1999.90;;;999.90;;
6145;SDS011;3104;50.348;7.620;2023-11-19T01:39:04;1999.90;;;999.90;;
6145;SDS011;3104;50.348;7.620;2023-11-19T01:41:33;1999.90;;;999.90;;
6145;SDS011;3104;50.348;7.620;2023-11-19T01:44:00;1999.90;;;999.90;;
6145;SDS011;3104;50.348;7.620;2023-11-19T01:46:25;1999.90;;;999.90;;
6145;SDS011;3104;50.348;7.620;2023-11-19T01:48:51;1999.90;;;999.90;;
6145;SDS011;3104;50.348;7.620;2023-11-19T01:51:19;1999.90;;;999.90;;
6145;SDS011;3104;50.348;7.620;2023-11-19T01:53:46;1999.90;;;999.90;;
6145;SDS011;3104;50.348;7.620;2023-11-19T01:56:13;1999.90;;;999.90;;
6145;SDS011;3104;50.348;7.620;2023-11-19T01:58:40;1999.90;;;999.90;;
6145;SDS011;3104;50.348;7.620;2023-11-19T02:01:07;1999.90;;;999.90;;
6145;SDS011;3104;50.348;7.620;2023-11-19T02:03:32;1999.90;;;999.90;;
6145;SDS011;3104;50.348;7.620;2023-11-19T02:06:02;1999.90;;;999.90;;
6145;SDS011;3104;50.348;7.620;2023-11-19T02:08:29;1999.90;;;999.90;;
6145;SDS011;3104;50.348;7.620;2023-11-19T02:10:55;1999.90;;;999.90;;
6145;SDS011;3104;50.348;7.620;2023-11-19T02:13:23;1999.90;;;999.90;;
6145;SDS011;3104;50.348;7.620;2023-11-19T02:15:52;1999.90;;;999.90;;
6145;SDS011;3104;50.348;7.620;2023-11-19T02:18:21;1999.90;;;999.90;;
6145;SDS011;3104;50.348;7.620;2023-11-19T02:20:49;1999.90;;;999.90;;
6145;SDS011;3104;50.348;7.620;2023-11-19T02:23:15;1999.90;;;999.90;;
6145;SDS011;3104;50.348;7.620;2023-11-19T02:25:41;1999.90;;;999.90;;
6145;SDS011;3104;50.348;7.620;2023-11-19T02:28:11;1999.90;;;999.90;;
6145;SDS011;3104;50.348;7.620;2023-11-19T02:30:37;1999.90;;;999.90;;
6145;SDS011;3104;50.348;7.620;2023-11-19T02:33:03;1999.90;;;999.90;;
6145;SDS011;3104;50.348;7.620;2023-11-19T02:35:30;1999.90;;;999.90;;
6145;SDS011;3104;50.348;7.620;2023-11-19T02:37:57;1999.90;;;999.90;;
6145;SDS011;3104;50.348;7.620;2023-11-19T02:40:28;1999.90;;;999.90;;
6145;SDS011;3104;50.348;7.620;2023-11-19T02:42:54;846.03;;;404.33;;
6145;SDS011;3104;50.348;7.620;2023-11-19T02:45:22;1999.90;;;999.90;;
6145;SDS011;3104;50.348;7.620;2023-11-19T02:47:48;1999.90;;;999.90;;
6145;SDS011;3104;50.348;7.620;2023-11-19T02:50:14;1999.90;;;999.90;;
6145;SDS011;3104;50.348;7.620;2023-11-19T02:52:43;1999.90;;;999.90;;
6145;SDS011;3104;50.348;7.620;2023-11-19T02:55:10;1999.90;;;999.90;;
6145;SDS011;3104;50.348;7.620;2023-11-19T02:57:39;1999.90;;;999.90;;
6145;SDS011;3104;50.348;7.620;2023-11-19T03:00:12;885.23;;;421.37;;
6145;SDS011;3104;50.348;7.620;2023-11-19T03:02:41;1999.90;;;999.90;;
6145;SDS011;3104;50.348;7.620;2023-11-19T03:05:14;1999.90;;;999.90;;
6145;SDS011;3104;50.348;7.620;2023-11-19T03:07:41;1324.63;;;289.47;;
6145;SDS011;3104;50.348;7.620;2023-11-19T03:10:08;1397.50;;;688.37;;
6145;SDS011;3104;50.348;7.620;2023-11-19T03:12:40;1999.90;;;999.90;;
6145;SDS011;3104;50.348;7.620;2023-11-19T03:15:06;1999.90;;;999.90;;
6145;SDS011;3104;50.348;7.620;2023-11-19T03:17:35;1999.90;;;999.90;;
6145;SDS011;3104;50.348;7.620;2023-11-19T03:20:02;1999.90;;;999.90;;
6145;SDS011;3104;50.348;7.620;2023-11-19T03:22:31;1999.90;;;999.90;;
6145;SDS011;3104;50.348;7.620;2023-11-19T03:24:59;1999.90;;;999.90;;
6145;SDS011;3104;50.348;7.620;2023-11-19T03:27:24;856.30;;;397.67;;
6145;SDS011;3104;50.348;7.620;2023-11-19T03:29:50;1999.90;;;999.90;;
6145;SDS011;3104;50.348;7.620;2023-11-19T03:32:16;1999.90;;;999.90;;
6145;SDS011;3104;50.348;7.620;2023-11-19T03:34:41;905.20;;;548.97;;
6145;SDS011;3104;50.348;7.620;2023-11-19T03:37:07;1999.90;;;999.90;;
6145;SDS011;3104;50.348;7.620;2023-11-19T03:39:32;1999.90;;;999.90;;
6145;SDS011;3104;50.348;7.620;2023-11-19T03:41:58;1999.90;;;999.90;;
6145;SDS011;3104;50.348;7.620;2023-11-19T03:44:25;1999.90;;;999.90;;
6145;SDS011;3104;50.348;7.620;2023-11-19T03:46:52;1999.90;;;999.90;;
6145;SDS011;3104;50.348;7.620;2023-11-19T03:49:17;1999.90;;;999.90;;
6145;SDS011;3104;50.348;7.620;2023-11-19T03:51:43;1999.90;;;999.90;;
6145;SDS011;3104;50.348;7.620;2023-11-19T03:54:08;1999.90;;;999.90;;
6145;SDS011;3104;50.348;7.620;2023-11-19T03:56:34;1999.90;;;999.90;;
6145;SDS011;3104;50.348;7.620;2023-11-19T03:59:00;1999.90;;;999.90;;
6145;SDS011;3104;50.348;7.620;2023-11-19T04:01:25;1999.90;;;999.90;;
6145;SDS011;3104;50.348;7.620;2023-11-19T04:03:51;1999.90;;;999.90;;
6145;SDS011;3104;50.348;7.620;2023-11-19T04:06:17;1999.90;;;999.90;;
6145;SDS011;3104;50.348;7.620;2023-11-19T04:08:42;1999.90;;;999.90;;
6145;SDS011;3104;50.348;7.620;2023-11-19T04:11:08;1449.10;;;691.97;;
6145;SDS011;3104;50.348;7.620;2023-11-19T04:13:34;1999.90;;;999.90;;
6145;SDS011;3104;50.348;7.620;2023-11-19T04:16:00;1999.90;;;999.90;;
6145;SDS011;3104;50.348;7.620;2023-11-19T04:18:26;1999.90;;;999.90;;
6145;SDS011;3104;50.348;7.620;2023-11-19T04:20:52;1999.90;;;999.90;;
6145;SDS011;3104;50.348;7.620;2023-11-19T04:23:17;1999.90;;;999.90;;
6145;SDS011;3104;50.348;7.620;2023-11-19T04:25:43;1999.90;;;999.90;;
6145;SDS011;3104;50.348;7.620;2023-11-19T04:28:09;1999.90;;;999.90;;
6145;SDS011;3104;50.348;7.620;2023-11-19T04:30:34;1999.90;;;999.90;;
6145;SDS011;3104;50.348;7.620;2023-11-19T04:33:00;1999.90;;;999.90;;
6145;SDS011;3104;50.348;7.620;2023-11-19T04:35:26;1999.90;;;999.90;;
6145;SDS011;3104;50.348;7.620;2023-11-19T04:37:51;1999.90;;;999.90;;
6145;SDS011;3104;50.348;7.620;2023-11-19T04:40:17;1999.90;;;999.90;;
6145;SDS011;3104;50.348;7.620;2023-11-19T04:42:47;1999.90;;;999.90;;
6145;SDS011;3104;50.348;7.620;2023-11-19T04:45:13;1999.90;;;999.90;;
6145;SDS011;3104;50.348;7.620;2023-11-19T04:47:38;1999.90;;;999.90;;
6145;SDS011;3104;50.348;7.620;2023-11-19T04:50:04;1999.90;;;999.90;;
6145;SDS011;3104;50.348;7.620;2023-11-19T04:52:30;1999.90;;;999.90;;
6145;SDS011;3104;50.348;7.620;2023-11-19T04:54:56;1999.90;;;999.90;;
6145;SDS011;3104;50.348;7.620;2023-11-19T04:57:21;1999.90;;;999.90;;
6145;SDS011;3104;50.348;7.620;2023-11-19T04:59:47;1999.90;;;999.90;;
6145;SDS011;3104;50.348;7.620;2023-11-19T05:02:12;1999.90;;;999.90;;
6145;SDS011;3104;50.348;7.620;2023-11-19T05:04:42;1999.90;;;999.90;;
6145;SDS011;3104;50.348;7.620;2023-11-19T05:07:09;1999.90;;;999.90;;
6145;SDS011;3104;50.348;7.620;2023-11-19T05:09:34;1999.90;;;999.90;;
6145;SDS011;3104;50.348;7.620;2023-11-19T05:12:00;1999.90;;;999.90;;
6145;SDS011;3104;50.348;7.620;2023-11-19T05:14:27;1999.90;;;999.90;;
6145;SDS011;3104;50.348;7.620;2023-11-19T05:16:53;1999.90;;;999.90;;
6145;SDS011;3104;50.348;7.620;2023-11-19T05:19:18;1999.90;;;999.90;;
6145;SDS011;3104;50.348;7.620;2023-11-19T05:21:44;1999.90;;;999.90;;
6145;SDS011;3104;50.348;7.620;2023-11-19T05:24:10;1999.90;;;999.90;;
6145;SDS011;3104;50.348;7.620;2023-11-19T05:26:36;1999.90;;;999.90;;
6145;SDS011;3104;50.348;7.620;2023-11-19T05:29:03;1999.90;;;999.90;;
6145;SDS011;3104;50.348;7.620;2023-11-19T05:31:29;1008.97;;;402.50;;
6145;SDS011;3104;50.348;7.620;2023-11-19T05:33:55;1999.90;;;999.90;;
6145;SDS011;3104;50.348;7.620;2023-11-19T05:36:20;888.23;;;401.57;;
6145;SDS011;3104;50.348;7.620;2023-11-19T05:38:46;1999.90;;;999.90;;
6145;SDS011;3104;50.348;7.620;2023-11-19T05:41:12;1999.90;;;999.90;;
6145;SDS011;3104;50.348;7.620;2023-11-19T05:43:37;1999.90;;;999.90;;
6145;SDS011;3104;50.348;7.620;2023-11-19T05:46:05;1999.90;;;999.90;;
6145;SDS011;3104;50.348;7.620;2023-11-19T05:48:31;1999.90;;;999.90;;
6145;SDS011;3104;50.348;7.620;2023-11-19T05:50:57;1999.90;;;999.90;;
6145;SDS011;3104;50.348;7.620;2023-11-19T05:53:22;1999.90;;;999.90;;
6145;SDS011;3104;50.348;7.620;2023-11-19T05:55:48;1999.90;;;999.90;;
6145;SDS011;3104;50.348;7.620;2023-11-19T05:58:19;1999.90;;;999.90;;
6145;SDS011;3104;50.348;7.620;2023-11-19T06:00:50;1999.90;;;999.90;;
6145;SDS011;3104;50.348;7.620;2023-11-19T06:03:16;1999.90;;;999.90;;
6145;SDS011;3104;50.348;7.620;2023-11-19T06:05:44;1999.90;;;999.90;;
6145;SDS011;3104;50.348;7.620;2023-11-19T06:08:11;1999.90;;;999.90;;
6145;SDS011;3104;50.348;7.620;2023-11-19T06:10:38;1999.90;;;999.90;;
6145;SDS011;3104;50.348;7.620;2023-11-19T06:13:04;1999.90;;;999.90;;
6145;SDS011;3104;50.348;7.620;2023-11-19T06:15:30;1999.90;;;999.90;;
6145;SDS011;3104;50.348;7.620;2023-11-19T06:17:57;1999.90;;;999.90;;
6145;SDS011;3104;50.348;7.620;2023-11-19T06:20:24;1999.90;;;999.90;;
6145;SDS011;3104;50.348;7.620;2023-11-19T06:22:50;1999.90;;;999.90;;
6145;SDS011;3104;50.348;7.620;2023-11-19T06:25:15;1999.90;;;999.90;;
6145;SDS011;3104;50.348;7.620;2023-11-19T06:27:41;1406.67;;;695.60;;
6145;SDS011;3104;50.348;7.620;2023-11-19T06:30:07;1999.90;;;999.90;;
6145;SDS011;3104;50.348;7.620;2023-11-19T06:32:33;1999.90;;;999.90;;
6145;SDS011;3104;50.348;7.620;2023-11-19T06:34:59;325.90;;;87.47;;
6145;SDS011;3104;50.348;7.620;2023-11-19T06:37:25;812.10;;;378.10;;
6145;SDS011;3104;50.348;7.620;2023-11-19T06:39:51;1999.90;;;999.90;;
6145;SDS011;3104;50.348;7.620;2023-11-19T06:42:16;1999.90;;;999.90;;
6145;SDS011;3104;50.348;7.620;2023-11-19T06:44:42;1999.90;;;999.90;;
6145;SDS011;3104;50.348;7.620;2023-11-19T06:47:08;1999.90;;;999.90;;
6145;SDS011;3104;50.348;7.620;2023-11-19T06:49:33;731.33;;;251.63;;
6145;SDS011;3104;50.348;7.620;2023-11-19T06:51:59;1999.90;;;999.90;;
6145;SDS011;3104;50.348;7.620;2023-11-19T06:54:24;1999.90;;;999.90;;
6145;SDS011;3104;50.348;7.620;2023-11-19T06:56:50;1999.90;;;999.90;;
6145;SDS011;3104;50.348;7.620;2023-11-19T06:59:16;1999.90;;;999.90;;
6145;SDS011;3104;50.348;7.620;2023-11-19T07:01:41;1999.90;;;999.90;;
6145;SDS011;3104;50.348;7.620;2023-11-19T07:04:10;1999.90;;;999.90;;
6145;SDS011;3104;50.348;7.620;2023-11-19T07:06:38;1999.90;;;999.90;;
6145;SDS011;3104;50.348;7.620;2023-11-19T07:09:06;508.40;;;96.17;;
6145;SDS011;3104;50.348;7.620;2023-11-19T07:11:41;375.97;;;154.07;;
6145;SDS011;3104;50.348;7.620;2023-11-19T07:14:07;1570.33;;;746.60;;
6145;SDS011;3104;50.348;7.620;2023-11-19T07:16:33;1999.90;;;999.90;;
6145;SDS011;3104;50.348;7.620;2023-11-19T07:19:03;1999.90;;;999.90;;
6145;SDS011;3104;50.348;7.620;2023-11-19T07:21:28;1999.90;;;999.90;;
6145;SDS011;3104;50.348;7.620;2023-11-19T07:23:55;1999.90;;;999.90;;
6145;SDS011;3104;50.348;7.620;2023-11-19T07:26:21;1999.90;;;999.90;;
6145;SDS011;3104;50.348;7.620;2023-11-19T07:28:47;1999.90;;;999.90;;
6145;SDS011;3104;50.348;7.620;2023-11-19T07:31:12;1999.90;;;999.90;;
6145;SDS011;3104;50.348;7.620;2023-11-19T07:33:39;1999.90;;;999.90;;
6145;SDS011;3104;50.348;7.620;2023-11-19T07:36:07;1999.90;;;999.90;;
6145;SDS011;3104;50.348;7.620;2023-11-19T07:38:36;1999.90;;;999.90;;
6145;SDS011;3104;50.348;7.620;2023-11-19T07:41:03;1999.90;;;999.90;;
6145;SDS011;3104;50.348;7.620;2023-11-19T07:43:30;1219.83;;;495.43;;
6145;SDS011;3104;50.348;7.620;2023-11-19T07:45:55;1999.90;;;999.90;;
6145;SDS011;3104;50.348;7.620;2023-11-19T07:48:24;1999.90;;;999.90;;
6145;SDS011;3104;50.348;7.620;2023-11-19T07:50:50;1462.47;;;715.50;;
6145;SDS011;3104;50.348;7.620;2023-11-19T07:53:16;1433.97;;;711.13;;
6145;SDS011;3104;50.348;7.620;2023-11-19T07:55:42;1999.90;;;999.90;;
6145;SDS011;3104;50.348;7.620;2023-11-19T07:58:08;1999.90;;;999.90;;
6145;SDS011;3104;50.348;7.620;2023-11-19T08:00:35;1999.90;;;999.90;;
6145;SDS011;3104;50.348;7.620;2023-11-19T08:03:00;988.00;;;919.43;;
6145;SDS011;3104;50.348;7.620;2023-11-19T08:05:26;1078.57;;;997.90;;
6145;SDS011;3104;50.348;7.620;2023-11-19T08:07:51;1203.27;;;819.40;;
6145;SDS011;3104;50.348;7.620;2023-11-19T08:10:18;821.93;;;741.33;;
6145;SDS011;3104;50.348;7.620;2023-11-19T08:12:44;933.63;;;797.23;;
6145;SDS011;3104;50.348;7.620;2023-11-19T08:15:10;1999.90;;;999.90;;
6145;SDS011;3104;50.348;7.620;2023-11-19T08:17:35;1999.90;;;999.90;;
6145;SDS011;3104;50.348;7.620;2023-11-19T08:20:01;1999.90;;;999.90;;
6145;SDS011;3104;50.348;7.620;2023-11-19T08:22:28;143.83;;;131.97;;
6145;SDS011;3104;50.348;7.620;2023-11-19T08:24:53;43.33;;;6.53;;
6145;SDS011;3104;50.348;7.620;2023-11-19T08:27:19;22.60;;;2.53;;
6145;SDS011;3104;50.348;7.620;2023-11-19T08:29:51;53.33;;;29.87;;
6145;SDS011;3104;50.348;7.620;2023-11-19T08:32:23;49.20;;;6.77;;
6145;SDS011;3104;50.348;7.620;2023-11-19T08:34:52;53.77;;;27.70;;
6145;SDS011;3104;50.348;7.620;2023-11-19T08:37:18;41.40;;;3.50;;
6145;SDS011;3104;50.348;7.620;2023-11-19T08:39:46;47.27;;;10.97;;
6145;SDS011;3104;50.348;7.620;2023-11-19T08:42:12;49.93;;;6.57;;
6145;SDS011;3104;50.348;7.620;2023-11-19T08:44:38;56.40;;;20.47;;
6145;SDS011;3104;50.348;7.620;2023-11-19T08:47:03;51.57;;;7.03;;
6145;SDS011;3104;50.348;7.620;2023-11-19T08:49:29;40.23;;;2.77;;
6145;SDS011;3104;50.348;7.620;2023-11-19T08:51:55;37.10;;;2.37;;
6145;SDS011;3104;50.348;7.620;2023-11-19T08:54:20;39.10;;;3.33;;
6145;SDS011;3104;50.348;7.620;2023-11-19T08:56:47;38.40;;;3.20;;
6145;SDS011;3104;50.348;7.620;2023-11-19T08:59:13;38.30;;;2.63;;
6145;SDS011;3104;50.348;7.620;2023-11-19T09:01:40;40.43;;;4.10;;
6145;SDS011;3104;50.348;7.620;2023-11-19T09:04:06;37.03;;;3.20;;
6145;SDS011;3104;50.348;7.620;2023-11-19T09:06:32;38.77;;;3.30;;
6145;SDS011;3104;50.348;7.620;2023-11-19T09:08:58;45.43;;;16.97;;
6145;SDS011;3104;50.348;7.620;2023-11-19T09:11:28;42.00;;;4.30;;
6145;SDS011;3104;50.348;7.620;2023-11-19T09:13:54;42.07;;;4.23;;
6145;SDS011;3104;50.348;7.620;2023-11-19T09:16:20;39.20;;;3.03;;
6145;SDS011;3104;50.348;7.620;2023-11-19T09:18:46;42.90;;;4.10;;
6145;SDS011;3104;50.348;7.620;2023-11-19T09:21:12;39.27;;;3.80;;
6145;SDS011;3104;50.348;7.620;2023-11-19T09:23:37;41.03;;;3.33;;
6145;SDS011;3104;50.348;7.620;2023-11-19T09:26:04;37.27;;;2.90;;
6145;SDS011;3104;50.348;7.620;2023-11-19T09:28:31;39.83;;;3.10;;
6145;SDS011;3104;50.348;7.620;2023-11-19T09:30:57;38.07;;;3.63;;
6145;SDS011;3104;50.348;7.620;2023-11-19T09:33:23;38.87;;;2.80;;
6145;SDS011;3104;50.348;7.620;2023-11-19T09:35:49;45.07;;;9.30;;
6145;SDS011;3104;50.348;7.620;2023-11-19T09:38:15;38.70;;;2.70;;
6145;SDS011;3104;50.348;7.620;2023-11-19T09:40:41;40.10;;;3.00;;
6145;SDS011;3104;50.348;7.620;2023-11-19T09:43:07;41.83;;;3.57;;
6145;SDS011;3104;50.348;7.620;2023-11-19T09:45:39;36.73;;;3.53;;
6145;SDS011;3104;50.348;7.620;2023-11-19T09:48:19;40.13;;;4.17;;
6145;SDS011;3104;50.348;7.620;2023-11-19T09:50:48;35.97;;;2.63;;
6145;SDS011;3104;50.348;7.620;2023-11-19T09:53:14;37.80;;;2.90;;
6145;SDS011;3104;50.348;7.620;2023-11-19T09:55:40;39.13;;;3.67;;
6145;SDS011;3104;50.348;7.620;2023-11-19T09:58:06;36.90;;;3.43;;
6145;SDS011;3104;50.348;7.620;2023-11-19T10:00:33;40.23;;;3.30;;
6145;SDS011;3104;50.348;7.620;2023-11-19T10:02:59;37.80;;;3.23;;
6145;SDS011;3104;50.348;7.620;2023-11-19T10:05:25;41.00;;;5.27;;
6145;SDS011;3104;50.348;7.620;2023-11-19T10:07:51;44.80;;;3.20;;
6145;SDS011;3104;50.348;7.620;2023-11-19T10:10:17;41.90;;;3.20;;
6145;SDS011;3104;50.348;7.620;2023-11-19T10:12:47;44.00;;;3.73;;
6145;SDS011;3104;50.348;7.620;2023-11-19T10:15:23;41.07;;;4.83;;
6145;SDS011;3104;50.348;7.620;2023-11-19T10:17:51;39.73;;;4.20;;
6145;SDS011;3104;50.348;7.620;2023-11-19T10:20:17;43.30;;;3.30;;
6145;SDS011;3104;50.348;7.620;2023-11-19T10:22:42;38.30;;;3.77;;
6145;SDS011;3104;50.348;7.620;2023-11-19T10:25:24;46.90;;;4.47;;
6145;SDS011;3104;50.348;7.620;2023-11-19T10:27:51;38.87;;;3.10;;
6145;SDS011;3104;50.348;7.620;2023-11-19T10:30:21;39.20;;;4.53;;
6145;SDS011;3104;50.348;7.620;2023-11-19T10:35:51;42.43;;;3.93;;
6145;SDS011;3104;50.348;7.620;2023-11-19T10:38:18;39.50;;;3.37;;
6145;SDS011;3104;50.348;7.620;2023-11-19T10:40:44;41.97;;;3.40;;
6145;SDS011;3104;50.348;7.620;2023-11-19T10:43:10;45.93;;;3.70;;
6145;SDS011;3104;50.348;7.620;2023-11-19T10:45:36;45.30;;;4.63;;
6145;SDS011;3104;50.348;7.620;2023-11-19T10:48:03;38.80;;;4.23;;
6145;SDS011;3104;50.348;7.620;2023-11-19T10:50:37;41.50;;;4.70;;
6145;SDS011;3104;50.348;7.620;2023-11-19T10:53:04;37.67;;;2.93;;
6145;SDS011;3104;50.348;7.620;2023-11-19T10:55:31;36.20;;;5.80;;
6145;SDS011;3104;50.348;7.620;2023-11-19T10:58:12;48.53;;;31.07;;
6145;SDS011;3104;50.348;7.620;2023-11-19T11:03:18;38.33;;;5.07;;
6145;SDS011;3104;50.348;7.620;2023-11-19T11:05:47;41.97;;;4.57;;
6145;SDS011;3104;50.348;7.620;2023-11-19T11:08:14;49.10;;;42.67;;
6145;SDS011;3104;50.348;7.620;2023-11-19T11:10:43;38.53;;;3.80;;
6145;SDS011;3104;50.348;7.620;2023-11-19T11:13:10;36.27;;;3.40;;
6145;SDS011;3104;50.348;7.620;2023-11-19T11:15:38;44.13;;;4.20;;
6145;SDS011;3104;50.348;7.620;2023-11-19T11:18:07;38.70;;;3.83;;
6145;SDS011;3104;50.348;7.620;2023-11-19T11:20:34;38.37;;;4.73;;
6145;SDS011;3104;50.348;7.620;2023-11-19T11:28:56;38.23;;;4.07;;
6145;SDS011;3104;50.348;7.620;2023-11-19T11:39:46;43.67;;;4.93;;
6145;SDS011;3104;50.348;7.620;2023-11-19T11:50:11;41.90;;;3.50;;
6145;SDS011;3104;50.348;7.620;2023-11-19T11:55:25;36.93;;;3.10;;
6145;SDS011;3104;50.348;7.620;2023-11-19T11:57:50;37.30;;;7.67;;
6145;SDS011;3104;50.348;7.620;2023-11-19T12:00:32;36.93;;;3.10;;
6145;SDS011;3104;50.348;7.620;2023-11-19T12:03:03;38.17;;;2.63;;
6145;SDS011;3104;50.348;7.620;2023-11-19T12:05:30;37.57;;;3.43;;
6145;SDS011;3104;50.348;7.620;2023-11-19T12:08:00;41.30;;;3.20;;
6145;SDS011;3104;50.348;7.620;2023-11-19T12:10:30;39.73;;;21.53;;
6145;SDS011;3104;50.348;7.620;2023-11-19T12:12:58;35.30;;;3.33;;
6145;SDS011;3104;50.348;7.620;2023-11-19T12:15:24;35.50;;;2.47;;
6145;SDS011;3104;50.348;7.620;2023-11-19T12:17:51;39.53;;;3.80;;
6145;SDS011;3104;50.348;7.620;2023-11-19T12:20:18;35.97;;;7.50;;
6145;SDS011;3104;50.348;7.620;2023-11-19T12:22:45;36.47;;;3.80;;
6145;SDS011;3104;50.348;7.620;2023-11-19T12:25:14;35.30;;;2.40;;
6145;SDS011;3104;50.348;7.620;2023-11-19T12:27:45;36.73;;;2.87;;
6145;SDS011;3104;50.348;7.620;2023-11-19T12:30:14;35.13;;;2.60;;
6145;SDS011;3104;50.348;7.620;2023-11-19T12:32:43;38.07;;;3.70;;
6145;SDS011;3104;50.348;7.620;2023-11-19T12:35:10;35.60;;;2.93;;
6145;SDS011;3104;50.348;7.620;2023-11-19T12:37:40;39.00;;;3.00;;
6145;SDS011;3104;50.348;7.620;2023-11-19T12:40:25;33.73;;;2.53;;
6145;SDS011;3104;50.348;7.620;2023-11-19T12:42:51;32.83;;;3.03;;
6145;SDS011;3104;50.348;7.620;2023-11-19T12:45:18;36.10;;;5.40;;
6145;SDS011;3104;50.348;7.620;2023-11-19T12:47:45;37.83;;;8.67;;
6145;SDS011;3104;50.348;7.620;2023-11-19T12:50:16;38.90;;;3.47;;
6145;SDS011;3104;50.348;7.620;2023-11-19T12:52:57;38.57;;;8.07;;
6145;SDS011;3104;50.348;7.620;2023-11-19T12:55:27;39.97;;;4.90;;
6145;SDS011;3104;50.348;7.620;2023-11-19T12:57:54;38.70;;;6.20;;
6145;SDS011;3104;50.348;7.620;2023-11-19T13:00:21;34.80;;;2.83;;
6145;SDS011;3104;50.348;7.620;2023-11-19T13:02:48;40.00;;;3.27;;
6145;SDS011;3104;50.348;7.620;2023-11-19T13:05:23;43.33;;;3.80;;
6145;SDS011;3104;50.348;7.620;2023-11-19T13:08:08;42.03;;;3.53;;
6145;SDS011;3104;50.348;7.620;2023-11-19T13:13:21;36.43;;;3.27;;
6145;SDS011;3104;50.348;7.620;2023-11-19T13:15:46;36.70;;;3.00;;
6145;SDS011;3104;50.348;7.620;2023-11-19T13:18:12;39.20;;;2.67;;
6145;SDS011;3104;50.348;7.620;2023-11-19T13:20:39;40.00;;;14.63;;
6145;SDS011;3104;50.348;7.620;2023-11-19T13:23:05;32.73;;;3.67;;
6145;SDS011;3104;50.348;7.620;2023-11-19T13:25:32;35.57;;;3.20;;
6145;SDS011;3104;50.348;7.620;2023-11-19T13:27:58;37.10;;;2.50;;
6145;SDS011;3104;50.348;7.620;2023-11-19T13:30:24;36.27;;;3.07;;
6145;SDS011;3104;50.348;7.620;2023-11-19T13:32:50;38.67;;;5.90;;
6145;SDS011;3104;50.348;7.620;2023-11-19T13:35:17;36.90;;;2.83;;
6145;SDS011;3104;50.348;7.620;2023-11-19T13:37:44;33.40;;;7.57;;
6145;SDS011;3104;50.348;7.620;2023-11-19T13:40:10;38.13;;;10.03;;
6145;SDS011;3104;50.348;7.620;2023-11-19T13:42:38;38.07;;;3.00;;
6145;SDS011;3104;50.348;7.620;2023-11-19T13:45:10;37.03;;;3.03;;
6145;SDS011;3104;50.348;7.620;2023-11-19T13:47:41;32.93;;;4.67;;
6145;SDS011;3104;50.348;7.620;2023-11-19T13:50:08;35.23;;;3.00;;
6145;SDS011;3104;50.348;7.620;2023-11-19T13:52:36;35.00;;;2.67;;
6145;SDS011;3104;50.348;7.620;2023-11-19T13:55:06;33.67;;;3.00;;
6145;SDS011;3104;50.348;7.620;2023-11-19T13:57:33;38.87;;;3.40;;
6145;SDS011;3104;50.348;7.620;2023-11-19T14:00:00;34.83;;;2.67;;
6145;SDS011;3104;50.348;7.620;2023-11-19T14:02:30;36.07;;;2.47;;
6145;SDS011;3104;50.348;7.620;2023-11-19T14:04:55;34.20;;;2.90;;
6145;SDS011;3104;50.348;7.620;2023-11-19T14:07:21;37.40;;;3.40;;
6145;SDS011;3104;50.348;7.620;2023-11-19T14:09:46;32.70;;;3.83;;
6145;SDS011;3104;50.348;7.620;2023-11-19T14:12:12;36.33;;;4.17;;
6145;SDS011;3104;50.348;7.620;2023-11-19T14:14:38;35.87;;;2.57;;
6145;SDS011;3104;50.348;7.620;2023-11-19T14:17:04;34.20;;;2.87;;
6145;SDS011;3104;50.348;7.620;2023-11-19T14:19:30;43.03;;;3.57;;
6145;SDS011;3104;50.348;7.620;2023-11-19T14:21:55;38.33;;;2.80;;
6145;SDS011;3104;50.348;7.620;2023-11-19T14:24:21;40.47;;;3.40;;
6145;SDS011;3104;50.348;7.620;2023-11-19T14:26:47;41.80;;;2.90;;
6145;SDS011;3104;50.348;7.620;2023-11-19T14:29:13;38.40;;;3.47;;
6145;SDS011;3104;50.348;7.620;2023-11-19T14:31:39;36.73;;;3.83;;
6145;SDS011;3104;50.348;7.620;2023-11-19T14:34:05;41.03;;;6.20;;
6145;SDS011;3104;50.348;7.620;2023-11-19T14:36:30;36.73;;;4.10;;
6145;SDS011;3104;50.348;7.620;2023-11-19T14:38:56;33.27;;;3.13;;
6145;SDS011;3104;50.348;7.620;2023-11-19T14:41:23;42.40;;;3.40;;
6145;SDS011;3104;50.348;7.620;2023-11-19T14:43:49;38.67;;;6.00;;
6145;SDS011;3104;50.348;7.620;2023-11-19T14:46:15;31.73;;;2.40;;
6145;SDS011;3104;50.348;7.620;2023-11-19T14:48:41;34.77;;;3.00;;
6145;SDS011;3104;50.348;7.620;2023-11-19T14:51:07;35.70;;;2.63;;
6145;SDS011;3104;50.348;7.620;2023-11-19T14:53:33;36.20;;;3.17;;
6145;SDS011;3104;50.348;7.620;2023-11-19T14:55:59;35.87;;;4.20;;
6145;SDS011;3104;50.348;7.620;2023-11-19T14:58:25;33.47;;;3.00;;
6145;SDS011;3104;50.348;7.620;2023-11-19T15:00:51;34.30;;;6.10;;
6145;SDS011;3104;50.348;7.620;2023-11-19T15:03:17;31.83;;;2.47;;